createdAt,value
2023-02-02T00:00:29.014Z,1.75
2023-02-02T00:01:32.061Z,1.77
2023-02-02T00:02:33.765Z,1.77
2023-02-02T00:03:37.934Z,1.15
2023-02-02T00:04:40.850Z,1.52
2023-02-02T00:05:46.867Z,1.55
2023-02-02T00:06:49.582Z,1.80
2023-02-02T00:07:51.563Z,1.70
2023-02-02T00:08:54.541Z,1.65
2023-02-02T00:09:56.268Z,1.42
2023-02-02T00:10:58.829Z,1.77
2023-02-02T00:12:02.494Z,1.65
2023-02-02T00:13:04.051Z,1.95
2023-02-02T00:14:07.870Z,1.50
2023-02-02T00:15:10.946Z,1.83
2023-02-02T00:16:36.384Z,1.40
2023-02-02T00:17:39.003Z,1.77
2023-02-02T00:18:40.541Z,1.48
2023-02-02T00:19:46.565Z,1.65
2023-02-02T00:20:49.366Z,1.60
2023-02-02T00:21:51.875Z,1.70
2023-02-02T00:22:53.470Z,1.50
2023-02-02T00:23:55.941Z,1.83
2023-02-02T00:24:57.534Z,1.63
2023-02-02T00:25:59.995Z,1.52
2023-02-02T00:27:02.490Z,1.48
2023-02-02T00:28:04.315Z,1.80
2023-02-02T00:29:08.535Z,1.25
2023-02-02T00:30:11.620Z,1.70
2023-02-02T00:31:14.537Z,1.60
2023-02-02T00:32:16.094Z,1.60
2023-02-02T00:33:18.643Z,1.50
2023-02-02T00:34:20.810Z,1.60
2023-02-02T00:35:24.998Z,1.98
2023-02-02T00:36:27.161Z,1.63
2023-02-02T00:37:29.670Z,1.70
2023-02-02T00:38:31.404Z,1.55
2023-02-02T00:39:34.170Z,1.67
2023-02-02T00:40:35.720Z,1.38
2023-02-02T00:41:38.262Z,1.50
2023-02-02T00:42:40.027Z,1.40
2023-02-02T00:43:42.503Z,1.52
2023-02-02T00:45:03.050Z,1.75
2023-02-02T00:46:05.741Z,1.08
2023-02-02T00:47:07.487Z,1.30
2023-02-02T00:48:10.942Z,1.42
2023-02-02T00:49:12.511Z,1.92
2023-02-02T00:50:16.944Z,1.80
2023-02-02T00:51:19.829Z,1.50
2023-02-02T00:52:22.325Z,2.10
2023-02-02T00:53:24.025Z,1.42
2023-02-02T00:54:26.518Z,1.60
2023-02-02T00:55:28.204Z,1.45
2023-02-02T00:56:30.887Z,1.25
2023-02-02T00:57:32.505Z,1.48
2023-02-02T00:58:35.021Z,1.80
2023-02-02T00:59:36.600Z,1.95
2023-02-02T01:00:39.155Z,1.63
2023-02-02T01:01:40.780Z,1.73
2023-02-02T01:02:43.919Z,1.42
2023-02-02T01:03:45.449Z,1.63
2023-02-02T01:04:47.980Z,1.20
2023-02-02T01:05:51.525Z,1.33
2023-02-02T01:06:55.501Z,1.80
2023-02-02T01:07:57.147Z,1.35
2023-02-02T01:08:59.775Z,1.83
2023-02-02T01:10:01.349Z,2.05
2023-02-02T01:11:03.883Z,2.00
2023-02-02T01:12:05.985Z,1.30
2023-02-02T01:13:08.497Z,1.73
2023-02-02T01:14:10.022Z,1.67
2023-02-02T01:15:13.791Z,1.67
2023-02-02T01:16:15.887Z,1.52
2023-02-02T01:17:19.371Z,1.30
2023-02-02T01:18:20.968Z,1.50
2023-02-02T01:19:23.583Z,1.40
2023-02-02T01:20:25.859Z,1.67
2023-02-02T01:21:28.417Z,1.75
2023-02-02T01:22:31.377Z,1.40
2023-02-02T01:23:34.989Z,1.58
2023-02-02T01:24:36.585Z,1.63
2023-02-02T01:25:39.102Z,1.50
2023-02-02T01:26:40.665Z,1.70
2023-02-02T01:27:43.472Z,1.23
2023-02-02T01:28:46.388Z,1.48
2023-02-02T01:29:48.936Z,1.25
2023-02-02T01:30:50.633Z,1.85
2023-02-02T01:31:53.275Z,2.55
2023-02-02T01:32:54.813Z,1.15
2023-02-02T01:33:57.289Z,1.80
2023-02-02T01:34:58.845Z,1.30
2023-02-02T01:36:05.171Z,1.73
2023-02-02T01:37:06.910Z,1.40
2023-02-02T01:38:10.682Z,2.30
2023-02-02T01:39:12.289Z,1.70
2023-02-02T01:40:19.739Z,1.40
2023-02-02T01:41:23.692Z,1.40
2023-02-02T01:42:26.948Z,1.67
2023-02-02T01:43:30.403Z,1.42
2023-02-02T01:45:04.920Z,1.48
2023-02-02T01:46:11.228Z,1.38
2023-02-02T01:47:14.082Z,1.42
2023-02-02T01:48:17.082Z,1.30
2023-02-02T01:49:21.470Z,1.70
2023-02-02T01:50:28.483Z,1.30
2023-02-02T01:51:36.060Z,1.67
2023-02-02T01:52:38.684Z,1.52
2023-02-02T01:53:45.156Z,2.17
2023-02-02T01:54:49.243Z,0.98
2023-02-02T01:55:51.991Z,1.67
2023-02-02T01:56:57.640Z,1.35
2023-02-02T01:58:03.578Z,1.35
2023-02-02T01:59:06.586Z,1.70
2023-02-02T02:00:12.504Z,1.77
2023-02-02T02:01:14.922Z,1.27
2023-02-02T02:02:17.978Z,1.60
2023-02-02T02:03:23.076Z,1.40
2023-02-02T02:04:28.137Z,1.73
2023-02-02T02:05:33.107Z,1.65
2023-02-02T02:06:35.679Z,1.83
2023-02-02T02:07:38.847Z,1.30
2023-02-02T02:08:48.082Z,1.33
2023-02-02T02:09:49.713Z,1.27
2023-02-02T02:10:52.408Z,1.63
2023-02-02T02:11:54.655Z,1.55
2023-02-02T02:12:57.179Z,1.52
2023-02-02T02:14:22.432Z,1.58
2023-02-02T02:15:42.999Z,2.95
2023-02-02T02:16:56.375Z,1.17
2023-02-02T02:19:34.133Z,1.70
2023-02-02T02:21:21.697Z,1.40
2023-02-02T02:22:52.347Z,1.70
2023-02-02T02:24:42.519Z,1.05
2023-02-02T02:26:26.198Z,1.63
2023-02-02T02:27:57.061Z,1.35
2023-02-02T02:29:39.464Z,2.47
2023-02-02T02:31:07.983Z,1.67
2023-02-02T02:32:28.440Z,1.38
2023-02-02T02:33:36.191Z,0.82
2023-02-02T02:34:50.946Z,1.25
2023-02-02T02:36:02.311Z,1.73
2023-02-02T02:37:11.472Z,1.77
2023-02-02T02:38:22.905Z,1.40
2023-02-02T02:39:32.498Z,1.60
2023-02-02T02:40:38.387Z,1.77
2023-02-02T02:41:44.814Z,1.77
2023-02-02T02:42:52.776Z,1.55
2023-02-02T02:43:59.099Z,1.77
2023-02-02T02:45:04.082Z,1.40
2023-02-02T02:46:07.743Z,1.60
2023-02-02T02:47:11.409Z,2.00
2023-02-02T02:48:14.690Z,1.30
2023-02-02T02:49:18.041Z,1.88
2023-02-02T02:50:19.809Z,1.70
2023-02-02T02:51:47.121Z,1.20
2023-02-02T02:52:53.177Z,1.40
2023-02-02T02:53:55.620Z,1.30
2023-02-02T02:55:01.115Z,1.40
2023-02-02T02:56:11.170Z,1.73
2023-02-02T02:57:28.390Z,1.30
2023-02-02T02:58:39.687Z,1.50
2023-02-02T02:59:53.172Z,1.40
2023-02-02T03:01:03.615Z,1.67
2023-02-02T03:02:20.475Z,1.27
2023-02-02T03:03:35.232Z,1.98
2023-02-02T03:04:46.165Z,1.33
2023-02-02T03:05:55.569Z,1.38
2023-02-02T03:07:02.341Z,1.27
2023-02-02T03:08:11.662Z,1.02
2023-02-02T03:09:19.589Z,2.35
2023-02-02T03:10:27.849Z,1.40
2023-02-02T03:11:29.483Z,1.60
2023-02-02T03:12:32.172Z,1.40
2023-02-02T03:13:34.867Z,1.90
2023-02-02T03:14:38.103Z,1.60
2023-02-02T03:15:41.387Z,2.08
2023-02-02T03:16:43.975Z,1.48
2023-02-02T03:17:47.480Z,1.67
2023-02-02T03:18:51.387Z,1.35
2023-02-02T03:19:52.913Z,1.70
2023-02-02T03:20:55.466Z,1.95
2023-02-02T03:21:57.027Z,1.00
2023-02-02T03:22:59.596Z,1.60
2023-02-02T03:24:01.603Z,1.40
2023-02-02T03:25:04.319Z,1.50
2023-02-02T03:26:07.866Z,1.52
2023-02-02T03:27:09.578Z,1.20
2023-02-02T03:28:12.192Z,1.55
2023-02-02T03:29:14.143Z,1.50
2023-02-02T03:30:17.192Z,1.48
2023-02-02T03:31:18.980Z,1.77
2023-02-02T03:32:22.349Z,1.45
2023-02-02T03:33:24.270Z,1.65
2023-02-02T03:34:28.133Z,1.90
2023-02-02T03:35:29.887Z,1.40
2023-02-02T03:36:32.495Z,1.70
2023-02-02T03:37:34.535Z,1.67
2023-02-02T03:38:37.162Z,2.13
2023-02-02T03:39:38.758Z,1.15
2023-02-02T03:40:41.521Z,1.70
2023-02-02T03:41:43.047Z,1.42
2023-02-02T03:42:45.575Z,1.40
2023-02-02T03:43:47.145Z,1.50
2023-02-02T03:44:49.671Z,1.92
2023-02-02T03:45:56.020Z,1.80
2023-02-02T03:46:58.619Z,2.08
2023-02-02T03:48:00.146Z,2.03
2023-02-02T03:49:02.669Z,1.77
2023-02-02T03:50:07.793Z,1.52
2023-02-02T03:51:13.427Z,2.60
2023-02-02T03:52:15.058Z,1.67
2023-02-02T03:53:17.655Z,2.08
2023-02-02T03:54:19.236Z,1.65
2023-02-02T03:55:22.140Z,1.30
2023-02-02T03:56:24.805Z,1.60
2023-02-02T03:57:26.391Z,1.63
2023-02-02T03:58:29.041Z,1.83
2023-02-02T03:59:30.715Z,1.73
2023-02-02T04:00:33.235Z,1.95
2023-02-02T04:01:35.029Z,1.98
2023-02-02T04:02:37.574Z,2.03
2023-02-02T04:03:39.387Z,1.80
2023-02-02T04:04:41.983Z,1.63
2023-02-02T04:05:44.888Z,1.20
2023-02-02T04:06:47.447Z,1.38
2023-02-02T04:07:49.254Z,1.45
2023-02-02T04:08:52.219Z,2.10
2023-02-02T04:09:53.761Z,1.88
2023-02-02T04:10:56.251Z,1.80
2023-02-02T04:11:57.848Z,2.05
2023-02-02T04:13:00.334Z,1.60
2023-02-02T04:14:01.963Z,1.27
2023-02-02T04:15:05.291Z,1.77
2023-02-02T04:16:07.400Z,1.50
2023-02-02T04:17:09.948Z,1.60
2023-02-02T04:18:11.476Z,1.30
2023-02-02T04:19:14.126Z,2.03
2023-02-02T04:20:15.922Z,1.67
2023-02-02T04:21:19.762Z,1.30
2023-02-02T04:22:21.286Z,2.15
2023-02-02T04:23:23.928Z,1.52
2023-02-02T04:24:26.585Z,1.80
2023-02-02T04:25:28.182Z,1.50
2023-02-02T04:26:30.744Z,1.80
2023-02-02T04:27:34.075Z,1.77
2023-02-02T04:28:37.327Z,1.63
2023-02-02T04:29:38.990Z,1.65
2023-02-02T04:30:41.635Z,1.50
2023-02-02T04:31:43.380Z,1.80
2023-02-02T04:32:45.860Z,1.77
2023-02-02T04:33:47.464Z,1.70
2023-02-02T04:34:50.028Z,1.50
2023-02-02T04:35:51.642Z,1.80
2023-02-02T04:36:56.336Z,1.42
2023-02-02T04:37:58.048Z,2.08
2023-02-02T04:39:00.584Z,1.48
2023-02-02T04:40:02.164Z,1.65
2023-02-02T04:41:08.145Z,1.92
2023-02-02T04:42:09.783Z,1.75
2023-02-02T04:43:12.991Z,1.50
2023-02-02T04:44:15.762Z,1.85
2023-02-02T04:45:18.360Z,1.73
2023-02-02T04:46:19.989Z,2.03
2023-02-02T04:47:22.515Z,1.90
2023-02-02T04:48:24.282Z,1.77
2023-02-02T04:49:26.810Z,2.10
2023-02-02T04:50:28.820Z,1.63
2023-02-02T04:51:31.513Z,1.85
2023-02-02T04:52:35.172Z,1.48
2023-02-02T04:53:38.053Z,2.08
2023-02-02T04:54:39.639Z,1.92
2023-02-02T04:55:42.141Z,1.80
2023-02-02T04:56:43.751Z,1.88
2023-02-02T04:57:46.386Z,2.15
2023-02-02T04:58:48.007Z,1.90
2023-02-02T04:59:50.529Z,2.20
2023-02-02T05:00:52.097Z,2.38
2023-02-02T05:01:54.630Z,2.30
2023-02-02T05:02:56.172Z,1.75
2023-02-02T05:03:59.470Z,2.00
2023-02-02T05:05:01.039Z,2.28
2023-02-02T05:06:04.565Z,2.40
2023-02-02T05:07:06.201Z,2.13
2023-02-02T05:08:11.941Z,1.85
2023-02-02T05:09:14.966Z,1.90
2023-02-02T05:10:18.139Z,2.45
2023-02-02T05:11:21.514Z,2.03
2023-02-02T05:12:24.056Z,1.50
2023-02-02T05:13:25.690Z,2.28
2023-02-02T05:14:28.237Z,2.00
2023-02-02T05:15:29.844Z,2.20
2023-02-02T05:16:32.388Z,1.83
2023-02-02T05:17:34.004Z,1.48
2023-02-02T05:18:36.542Z,2.03
2023-02-02T05:19:38.123Z,1.88
2023-02-02T05:20:40.606Z,2.03
2023-02-02T05:21:44.450Z,1.75
2023-02-02T05:22:49.668Z,2.15
2023-02-02T05:23:52.604Z,1.92
2023-02-02T05:24:55.247Z,1.92
2023-02-02T05:25:57.193Z,1.75
2023-02-02T05:27:00.700Z,1.77
2023-02-02T05:28:02.268Z,2.13
2023-02-02T05:29:06.706Z,2.28
2023-02-02T05:30:10.509Z,1.80
2023-02-02T05:31:13.135Z,2.08
2023-02-02T05:32:14.798Z,1.55
2023-02-02T05:33:18.811Z,1.90
2023-02-02T05:34:20.636Z,2.22
2023-02-02T05:35:23.635Z,2.13
2023-02-02T05:36:25.462Z,1.67
2023-02-02T05:37:27.981Z,2.08
2023-02-02T05:38:29.535Z,2.20
2023-02-02T05:39:33.416Z,1.90
2023-02-02T05:40:35.032Z,2.10
2023-02-02T05:41:37.590Z,2.13
2023-02-02T05:42:39.141Z,1.95
2023-02-02T05:43:41.690Z,2.25
2023-02-02T05:44:43.305Z,1.50
2023-02-02T05:45:45.911Z,1.70
2023-02-02T05:46:47.523Z,1.77
2023-02-02T05:47:50.048Z,1.92
2023-02-02T05:48:51.659Z,2.08
2023-02-02T05:49:54.147Z,1.67
2023-02-02T05:51:01.094Z,2.03
2023-02-02T05:52:03.650Z,1.60
2023-02-02T05:53:05.187Z,1.70
2023-02-02T05:54:07.686Z,1.98
2023-02-02T05:55:10.928Z,1.45
2023-02-02T05:56:13.528Z,1.88
2023-02-02T05:57:15.111Z,2.60
2023-02-02T05:58:17.626Z,1.80
2023-02-02T05:59:20.564Z,1.90
2023-02-02T06:00:22.999Z,1.70
2023-02-02T06:01:25.493Z,2.03
2023-02-02T06:02:29.736Z,2.05
2023-02-02T06:03:32.275Z,1.80
2023-02-02T06:04:33.881Z,1.60
2023-02-02T06:05:36.420Z,2.00
2023-02-02T06:06:39.048Z,2.25
2023-02-02T06:07:41.508Z,2.33
2023-02-02T06:08:43.222Z,2.45
2023-02-02T06:09:45.831Z,1.70
2023-02-02T06:10:49.166Z,2.13
2023-02-02T06:11:51.753Z,2.10
2023-02-02T06:12:53.283Z,1.40
2023-02-02T06:13:55.780Z,2.25
2023-02-02T06:14:57.396Z,2.20
2023-02-02T06:16:00.033Z,1.67
2023-02-02T06:17:01.755Z,2.35
2023-02-02T06:18:06.143Z,1.85
2023-02-02T06:19:07.823Z,1.50
2023-02-02T06:20:11.636Z,1.98
2023-02-02T06:21:13.203Z,1.98
2023-02-02T06:22:15.766Z,1.48
2023-02-02T06:23:17.370Z,1.60
2023-02-02T06:24:19.967Z,1.95
2023-02-02T06:25:21.556Z,1.65
2023-02-02T06:26:28.728Z,2.05
2023-02-02T06:27:30.344Z,1.58
2023-02-02T06:28:33.171Z,2.03
2023-02-02T06:29:34.727Z,1.73
2023-02-02T06:30:37.327Z,1.80
2023-02-02T06:31:39.400Z,1.85
2023-02-02T06:32:42.131Z,2.30
2023-02-02T06:33:43.693Z,2.00
2023-02-02T06:34:46.289Z,1.35
2023-02-02T06:35:48.900Z,2.55
2023-02-02T06:36:54.702Z,1.42
2023-02-02T06:37:57.696Z,2.60
2023-02-02T06:39:02.334Z,2.25
2023-02-02T06:40:04.435Z,2.60
2023-02-02T06:41:07.522Z,2.03
2023-02-02T06:42:20.821Z,2.20
2023-02-02T06:43:24.534Z,1.55
2023-02-02T06:44:26.202Z,1.60
2023-02-02T06:45:29.691Z,1.75
2023-02-02T06:46:32.271Z,1.85
2023-02-02T06:47:33.982Z,1.75
2023-02-02T06:48:36.587Z,1.65
2023-02-02T06:49:38.339Z,1.98
2023-02-02T06:50:41.404Z,1.50
2023-02-02T06:51:43.930Z,1.50
2023-02-02T06:52:48.250Z,1.88
2023-02-02T06:53:50.961Z,1.70
2023-02-02T06:54:52.619Z,1.70
2023-02-02T06:55:55.789Z,1.85
2023-02-02T06:56:57.447Z,1.60
2023-02-02T06:58:02.633Z,1.83
2023-02-02T06:59:04.326Z,1.65
2023-02-02T07:00:08.169Z,1.63
2023-02-02T07:01:12.286Z,1.83
2023-02-02T07:02:15.327Z,1.73
2023-02-02T07:03:17.669Z,1.50
2023-02-02T07:04:20.405Z,1.20
2023-02-02T07:05:24.708Z,1.73
2023-02-02T07:06:29.510Z,2.38
2023-02-02T07:07:32.229Z,1.98
2023-02-02T07:08:34.700Z,1.92
2023-02-02T07:09:36.355Z,1.58
2023-02-02T07:11:12.001Z,1.67
2023-02-02T07:12:02.209Z,2.15
2023-02-02T07:13:06.972Z,1.98
2023-02-02T07:14:09.907Z,1.30
2023-02-02T07:15:11.828Z,1.58
2023-02-02T07:16:15.267Z,1.58
2023-02-02T07:17:17.122Z,1.50
2023-02-02T07:18:19.648Z,2.13
2023-02-02T07:19:22.110Z,1.83
2023-02-02T07:20:23.939Z,1.92
2023-02-02T07:21:28.351Z,2.00
2023-02-02T07:22:29.873Z,1.85
2023-02-02T07:23:34.086Z,1.83
2023-02-02T07:24:35.669Z,3.10
2023-02-02T07:25:38.164Z,1.73
2023-02-02T07:26:39.744Z,2.13
2023-02-02T07:27:42.303Z,1.85
2023-02-02T07:28:45.901Z,1.60
2023-02-02T07:29:48.476Z,1.73
2023-02-02T07:30:52.168Z,2.00
2023-02-02T07:31:54.797Z,1.77
2023-02-02T07:32:56.769Z,2.03
2023-02-02T07:33:59.757Z,1.67
2023-02-02T07:35:01.311Z,1.80
2023-02-02T07:36:04.400Z,2.05
2023-02-02T07:37:06.011Z,1.75
2023-02-02T07:38:08.486Z,1.60
2023-02-02T07:39:11.859Z,2.03
2023-02-02T07:40:15.316Z,1.80
2023-02-02T07:41:17.546Z,1.60
2023-02-02T07:42:20.225Z,2.45
2023-02-02T07:43:21.823Z,1.52
2023-02-02T07:44:26.145Z,1.80
2023-02-02T07:45:28.332Z,1.40
2023-02-02T07:46:31.289Z,1.60
2023-02-02T07:47:32.928Z,1.60
2023-02-02T07:48:37.962Z,1.73
2023-02-02T07:49:39.632Z,2.08
2023-02-02T07:50:42.380Z,1.73
2023-02-02T07:51:47.804Z,2.22
2023-02-02T07:52:49.575Z,1.90
2023-02-02T07:53:59.145Z,1.63
2023-02-02T07:55:14.084Z,1.77
2023-02-02T07:56:20.439Z,1.88
2023-02-02T07:57:24.446Z,1.67
2023-02-02T07:58:27.256Z,2.05
2023-02-02T07:59:32.313Z,1.90
2023-02-02T08:00:35.260Z,1.30
2023-02-02T08:01:36.959Z,1.80
2023-02-02T08:02:39.782Z,1.83
2023-02-02T08:03:43.930Z,1.83
2023-02-02T08:04:47.356Z,1.55
2023-02-02T08:05:51.013Z,2.08
2023-02-02T08:06:56.672Z,1.50
2023-02-02T08:07:58.449Z,2.30
2023-02-02T08:09:04.621Z,1.42
2023-02-02T08:10:10.979Z,1.92
2023-02-02T08:11:14.904Z,1.40
2023-02-02T08:12:16.853Z,1.77
2023-02-02T08:13:19.909Z,2.33
2023-02-02T08:14:22.626Z,2.25
2023-02-02T08:15:26.070Z,2.20
2023-02-02T08:16:31.309Z,1.52
2023-02-02T08:17:34.049Z,2.08
2023-02-02T08:18:39.974Z,1.50
2023-02-02T08:19:42.573Z,1.80
2023-02-02T08:20:44.182Z,1.92
2023-02-02T08:21:46.851Z,3.05
2023-02-02T08:22:51.971Z,1.63
2023-02-02T08:23:54.082Z,1.60
2023-02-02T08:24:56.720Z,2.33
2023-02-02T08:26:07.035Z,2.65
2023-02-02T08:27:10.380Z,1.30
2023-02-02T08:28:12.267Z,1.52
2023-02-02T08:29:17.245Z,2.20
2023-02-02T08:30:20.078Z,1.70
2023-02-02T08:31:26.927Z,1.73
2023-02-02T08:32:31.954Z,2.63
2023-02-02T08:33:33.579Z,1.95
2023-02-02T08:34:37.043Z,1.67
2023-02-02T08:35:42.197Z,1.90
2023-02-02T08:36:44.777Z,1.70
2023-02-02T08:37:52.860Z,1.85
2023-02-02T08:38:55.824Z,1.92
2023-02-02T08:39:57.487Z,1.50
2023-02-02T08:41:05.697Z,1.73
2023-02-02T08:42:08.245Z,1.40
2023-02-02T08:43:10.738Z,1.70
2023-02-02T08:44:15.755Z,2.20
2023-02-02T08:46:01.994Z,1.40
2023-02-02T08:46:41.526Z,1.88
2023-02-02T08:47:43.125Z,1.70
2023-02-02T08:48:45.793Z,1.92
2023-02-02T08:49:48.539Z,2.20
2023-02-02T08:50:54.201Z,1.95
2023-02-02T08:51:56.742Z,1.65
2023-02-02T08:52:58.270Z,1.80
2023-02-02T08:54:01.005Z,1.67
2023-02-02T08:55:03.698Z,1.73
2023-02-02T08:56:08.675Z,1.75
2023-02-02T08:57:11.196Z,2.15
2023-02-02T08:58:12.842Z,2.20
2023-02-02T08:59:17.919Z,1.67
2023-02-02T09:00:20.498Z,1.67
2023-02-02T09:01:25.224Z,1.77
2023-02-02T09:02:29.170Z,1.90
2023-02-02T09:03:30.758Z,2.13
2023-02-02T09:04:33.395Z,1.90
2023-02-02T09:05:36.017Z,2.78
2023-02-02T09:06:40.853Z,1.77
2023-02-02T09:07:42.497Z,1.60
2023-02-02T09:08:46.474Z,1.70
2023-02-02T09:09:50.511Z,1.88
2023-02-02T09:10:53.081Z,2.13
2023-02-02T09:11:55.558Z,1.98
2023-02-02T09:12:57.267Z,1.52
2023-02-02T09:14:02.160Z,1.70
2023-02-02T09:15:05.287Z,1.90
2023-02-02T09:16:10.899Z,1.60
2023-02-02T09:17:13.443Z,1.60
2023-02-02T09:18:16.308Z,1.88
2023-02-02T09:19:18.877Z,2.00
2023-02-02T09:20:21.877Z,2.10
2023-02-02T09:21:24.901Z,1.63
2023-02-02T09:22:28.901Z,1.50
2023-02-02T09:23:31.524Z,2.25
2023-02-02T09:24:34.527Z,2.20
2023-02-02T09:25:37.380Z,2.13
2023-02-02T09:26:40.407Z,1.73
2023-02-02T09:27:42.703Z,2.22
2023-02-02T09:28:48.131Z,2.10
2023-02-02T09:29:52.335Z,1.65
2023-02-02T09:30:54.103Z,1.70
2023-02-02T09:31:56.891Z,1.90
2023-02-02T09:32:58.972Z,1.92
2023-02-02T09:34:03.972Z,2.10
2023-02-02T09:35:07.532Z,2.20
2023-02-02T09:36:12.628Z,2.40
2023-02-02T09:37:15.416Z,2.22
2023-02-02T09:38:17.270Z,1.95
2023-02-02T09:39:20.633Z,2.53
2023-02-02T09:40:27.849Z,2.30
2023-02-02T09:42:05.884Z,2.10
2023-02-02T09:43:25.841Z,1.90
2023-02-02T09:44:46.758Z,1.58
2023-02-02T09:45:59.714Z,1.85
2023-02-02T09:47:13.606Z,1.60
2023-02-02T09:48:26.602Z,1.70
2023-02-02T09:49:38.693Z,1.90
2023-02-02T09:50:46.989Z,1.95
2023-02-02T09:51:56.815Z,2.50
2023-02-02T09:53:07.926Z,2.53
2023-02-02T09:54:19.450Z,2.10
2023-02-02T09:55:30.187Z,1.88
2023-02-02T09:56:38.888Z,1.90
2023-02-02T09:57:45.980Z,2.20
2023-02-02T09:58:52.056Z,1.67
2023-02-02T09:59:55.614Z,2.53
2023-02-02T10:01:04.098Z,1.85
2023-02-02T10:02:13.925Z,2.15
2023-02-02T10:03:22.507Z,2.03
2023-02-02T10:04:33.002Z,1.85
2023-02-02T10:05:47.082Z,2.15
2023-02-02T10:06:52.306Z,1.70
2023-02-02T10:08:01.019Z,2.13
2023-02-02T10:09:13.905Z,2.08
2023-02-02T10:10:22.048Z,1.92
2023-02-02T10:11:33.590Z,1.83
2023-02-02T10:12:47.335Z,1.92
2023-02-02T10:13:53.861Z,1.70
2023-02-02T10:15:02.797Z,1.77
2023-02-02T10:16:08.378Z,2.40
2023-02-02T10:17:31.896Z,1.40
2023-02-02T10:18:42.752Z,1.90
2023-02-02T10:20:55.545Z,1.92
2023-02-02T10:22:06.419Z,3.17
2023-02-02T10:24:18.915Z,1.85
2023-02-02T10:25:27.301Z,2.13
2023-02-02T10:26:37.961Z,2.17
2023-02-02T10:28:54.012Z,1.60
2023-02-02T10:30:00.770Z,2.08
2023-02-02T10:31:02.588Z,2.35
2023-02-02T10:32:17.071Z,1.98
2023-02-02T10:33:28.716Z,1.58
2023-02-02T10:34:36.380Z,1.90
2023-02-02T10:35:48.384Z,1.73
2023-02-02T10:37:02.638Z,2.40
2023-02-02T10:38:14.253Z,2.03
2023-02-02T10:39:31.888Z,1.77
2023-02-02T10:40:47.189Z,2.10
2023-02-02T10:42:00.538Z,1.83
2023-02-02T10:43:47.037Z,1.90
2023-02-02T10:44:55.029Z,1.83
2023-02-02T10:45:58.006Z,1.63
2023-02-02T10:47:04.908Z,2.15
2023-02-02T10:48:14.181Z,1.50
2023-02-02T10:49:23.744Z,1.58
2023-02-02T10:50:27.014Z,2.03
2023-02-02T10:51:30.839Z,1.35
2023-02-02T10:52:36.913Z,1.30
2023-02-02T10:53:39.750Z,1.10
2023-02-02T10:55:07.081Z,1.08
2023-02-02T10:56:12.082Z,1.20
2023-02-02T10:57:20.846Z,1.13
2023-02-02T10:58:29.980Z,0.90
2023-02-02T10:59:35.939Z,0.80
2023-02-02T11:00:45.402Z,1.00
2023-02-02T11:01:48.604Z,1.15
2023-02-02T11:02:51.729Z,0.70
2023-02-02T11:04:14.553Z,0.90
2023-02-02T11:05:40.317Z,1.10
2023-02-02T11:06:51.078Z,0.90
2023-02-02T11:08:59.599Z,0.88
2023-02-02T11:10:02.093Z,1.08
2023-02-02T11:11:13.016Z,1.23
2023-02-02T11:12:22.192Z,1.10
2023-02-02T11:13:31.172Z,1.02
2023-02-02T11:14:45.004Z,0.90
2023-02-02T11:15:49.054Z,1.17
2023-02-02T11:17:01.390Z,1.05
2023-02-02T11:18:16.049Z,0.90
2023-02-02T11:19:24.143Z,0.70
2023-02-02T11:20:33.948Z,0.70
2023-02-02T11:21:38.850Z,1.17
2023-02-02T11:22:41.884Z,0.90
2023-02-02T11:23:53.590Z,1.05
2023-02-02T11:24:56.762Z,1.25
2023-02-02T11:26:00.905Z,1.42
2023-02-02T11:27:06.416Z,1.20
2023-02-02T11:28:18.716Z,0.90
2023-02-02T11:29:27.667Z,1.13
2023-02-02T11:30:34.594Z,0.80
2023-02-02T11:31:39.220Z,0.70
2023-02-02T11:32:41.903Z,1.00
2023-02-02T11:33:44.690Z,0.50
2023-02-02T11:34:47.427Z,1.00
2023-02-02T11:35:58.834Z,1.35
2023-02-02T11:37:04.437Z,1.10
2023-02-02T11:38:11.716Z,0.90
2023-02-02T11:39:21.169Z,1.08
2023-02-02T11:40:31.332Z,1.05
2023-02-02T11:41:37.673Z,1.17
2023-02-02T11:42:47.026Z,1.08
2023-02-02T11:43:52.509Z,1.88
2023-02-02T11:44:59.849Z,0.75
2023-02-02T11:46:05.810Z,1.85
2023-02-02T11:47:08.723Z,1.20
2023-02-02T11:48:15.963Z,1.27
2023-02-02T11:49:21.557Z,0.95
2023-02-02T11:50:27.876Z,0.80
2023-02-02T11:51:32.625Z,1.10
2023-02-02T11:52:36.051Z,0.90
2023-02-02T11:53:46.117Z,1.10
2023-02-02T11:54:52.525Z,1.20
2023-02-02T11:55:56.447Z,1.08
2023-02-02T11:57:01.903Z,0.90
2023-02-02T11:58:18.303Z,1.27
2023-02-02T11:59:36.253Z,1.50
2023-02-02T12:00:47.103Z,1.58
2023-02-02T12:01:49.769Z,1.20
2023-02-02T12:02:51.561Z,0.98
2023-02-02T12:03:55.724Z,1.08
2023-02-02T12:05:23.563Z,0.85
2023-02-02T12:06:28.041Z,0.95
2023-02-02T12:07:33.383Z,0.90
2023-02-02T12:08:37.628Z,1.23
2023-02-02T12:09:39.939Z,1.20
2023-02-02T12:10:50.999Z,1.10
2023-02-02T12:12:02.290Z,1.20
2023-02-02T12:13:18.740Z,1.33
2023-02-02T12:14:34.014Z,1.20
2023-02-02T12:15:47.548Z,1.10
2023-02-02T12:17:00.781Z,0.98
2023-02-02T12:18:13.923Z,0.98
2023-02-02T12:19:32.436Z,0.68
2023-02-02T12:20:44.952Z,1.33
2023-02-02T12:21:54.277Z,1.08
2023-02-02T12:23:17.942Z,1.10
2023-02-02T12:24:29.718Z,1.33
2023-02-02T12:26:02.416Z,0.90
2023-02-02T12:27:23.321Z,0.88
2023-02-02T12:28:43.432Z,0.98
2023-02-02T12:30:00.137Z,1.23
2023-02-02T12:31:11.507Z,1.38
2023-02-02T12:32:36.184Z,1.08
2023-02-02T12:33:46.276Z,1.15
2023-02-02T12:34:59.948Z,0.95
2023-02-02T12:36:19.214Z,1.17
2023-02-02T12:37:31.175Z,0.93
2023-02-02T12:39:01.794Z,0.80
2023-02-02T12:40:27.117Z,0.90
2023-02-02T12:41:44.516Z,1.15
2023-02-02T12:43:01.767Z,0.77
2023-02-02T12:44:14.798Z,0.77
2023-02-02T12:45:45.369Z,1.05
2023-02-02T12:47:00.603Z,0.70
2023-02-02T12:48:17.392Z,1.00
2023-02-02T12:49:39.158Z,1.00
2023-02-02T12:50:55.900Z,0.55
2023-02-02T12:52:21.044Z,1.10
2023-02-02T12:53:45.571Z,0.63
2023-02-02T12:55:05.441Z,0.90
2023-02-02T12:56:19.173Z,0.70
2023-02-02T12:57:29.815Z,0.73
2023-02-02T12:58:43.379Z,0.50
2023-02-02T13:00:08.365Z,0.50
2023-02-02T13:01:27.124Z,1.00
2023-02-02T13:02:35.805Z,0.50
2023-02-02T13:03:50.037Z,0.90
2023-02-02T13:05:05.871Z,0.98
2023-02-02T13:06:50.634Z,1.13
2023-02-02T13:07:59.620Z,1.00
2023-02-02T13:09:09.785Z,0.85
2023-02-02T13:10:22.725Z,0.68
2023-02-02T13:11:39.152Z,0.70
2023-02-02T13:12:47.383Z,0.60
2023-02-02T13:13:49.111Z,0.70
2023-02-02T13:14:57.659Z,0.50
2023-02-02T13:16:05.088Z,0.80
2023-02-02T13:17:13.917Z,0.50
2023-02-02T13:18:21.616Z,0.60
2023-02-02T13:19:35.504Z,0.85
2023-02-02T13:20:44.900Z,0.57
2023-02-02T13:21:49.352Z,0.82
2023-02-02T13:22:57.582Z,0.85
2023-02-02T13:24:05.116Z,0.80
2023-02-02T13:25:16.383Z,0.65
2023-02-02T13:26:21.852Z,0.73
2023-02-02T13:27:26.478Z,0.63
2023-02-02T13:28:37.612Z,0.80
2023-02-02T13:29:48.395Z,0.70
2023-02-02T13:30:51.849Z,0.63
2023-02-02T13:32:00.175Z,0.57
2023-02-02T13:33:07.869Z,0.70
2023-02-02T13:34:19.308Z,0.70
2023-02-02T13:35:26.458Z,0.82
2023-02-02T13:36:36.147Z,0.85
2023-02-02T13:37:45.941Z,0.82
2023-02-02T13:38:52.184Z,0.40
2023-02-02T13:40:00.187Z,0.60
2023-02-02T13:41:14.956Z,0.80
2023-02-02T13:42:30.091Z,0.68
2023-02-02T13:43:42.675Z,0.85
2023-02-02T13:44:51.507Z,0.70
2023-02-02T13:46:03.639Z,0.68
2023-02-02T13:47:14.318Z,0.50
2023-02-02T13:48:26.353Z,0.75
2023-02-02T13:49:32.022Z,0.82
2023-02-02T13:50:45.985Z,0.80
2023-02-02T13:52:04.644Z,0.80
2023-02-02T13:53:24.365Z,0.80
2023-02-02T13:55:08.784Z,0.70
2023-02-02T13:56:34.185Z,0.82
2023-02-02T13:58:12.528Z,0.50
2023-02-02T13:59:31.150Z,0.90
2023-02-02T14:00:38.431Z,0.60
2023-02-02T14:01:41.572Z,0.60
2023-02-02T14:02:47.687Z,0.90
2023-02-02T14:03:54.362Z,1.00
2023-02-02T14:04:59.903Z,0.90
2023-02-02T14:06:04.859Z,0.90
2023-02-02T14:07:07.763Z,1.20
2023-02-02T14:08:20.963Z,1.23
2023-02-02T14:09:27.787Z,1.00
2023-02-02T14:10:35.571Z,0.80
2023-02-02T14:11:42.425Z,0.90
2023-02-02T14:12:44.132Z,1.30
2023-02-02T14:14:07.099Z,1.40
2023-02-02T14:15:13.536Z,1.23
2023-02-02T14:16:22.356Z,0.95
2023-02-02T14:17:54.250Z,0.65
2023-02-02T14:18:59.272Z,1.00
2023-02-02T14:20:02.814Z,1.27
2023-02-02T14:21:05.531Z,0.80
2023-02-02T14:22:22.212Z,1.08
2023-02-02T14:23:53.847Z,1.10
2023-02-02T14:24:57.245Z,1.00
2023-02-02T14:26:09.412Z,1.60
2023-02-02T14:27:44.461Z,1.02
2023-02-02T14:28:51.899Z,1.10
2023-02-02T14:30:02.628Z,1.05
2023-02-02T14:31:42.817Z,0.93
2023-02-02T14:32:45.970Z,0.88
2023-02-02T14:33:49.970Z,1.00
2023-02-02T14:34:53.672Z,1.20
2023-02-02T14:36:01.350Z,1.20
2023-02-02T14:37:36.411Z,1.88
2023-02-02T14:39:18.997Z,1.33
2023-02-02T14:40:44.340Z,1.23
2023-02-02T14:42:22.248Z,1.10
2023-02-02T14:43:46.314Z,1.63
2023-02-02T14:45:24.899Z,1.20
2023-02-02T14:46:48.208Z,1.35
2023-02-02T14:47:54.682Z,1.10
2023-02-02T14:49:16.695Z,1.38
2023-02-02T14:50:24.698Z,1.45
2023-02-02T14:51:29.759Z,1.17
2023-02-02T14:52:33.441Z,1.25
2023-02-02T14:53:39.230Z,1.50